64013 station(s) have been heard in the last 24 hours.

<< 198 199 200 201 202 203 204 >>
  Name/Id Latest heard Comment/Other Map
Symbol F4ISC-N 1788451540 70cm MMDVM Voice (C4FM) 439.00000MHz +0.0000MHz, F4ISC_Pi-Star_ND Map
Symbol EL-F1ZQD 1788451540 144.962MHz T123 R38k << RI49 France Multiprotocole << Map
Symbol ESTNEVERI 1788451540 EPM EN VARGAS LITORAL VENEZUELA Map
Symbol AC3DB-4 1788451540 Butler FM Club Rimersburg bcafma.com=14.3V Map
Symbol KJ4TKL-10 1788451540 145.010MHz Winlink Packet Gateway Map
Symbol PI3SHB-N 1788451540 2m MMDVM Voice (C4FM) 144.90000MHz +0.0000MHz, PI3SHB_Pi-Star_ND Map
Symbol BLKMTN 1788451540 W2, WYn, BLACK MT/KK4NAW Map
Symbol HA8WM 1788451540 MMDVM MMDVM HS Hat 434.4000/434.4000 CC8 Map
Symbol EA4BNS-N 1788451540 70cm MMDVM Voice (C4FM) 432.02000MHz +0.0000MHz, EA4BNS_Pi-Star_ND Map
Symbol CS7ALY-5 1788451540 433.450MHz 73's Map
Symbol DB0NEY-R 1788451540 70cm MMDVM Voice (NXDN) 439.80000MHz -9.4000MHz, DB0NEY_Pi-Star_RPT Map
Symbol VR2HK-13 1788451540 WX/IGate 144.640 A12 12.4V 33.6C Map
Symbol E24GC C 1788451540 2m Voice 146.625 -0.600 MHz Map
Symbol BM6HNS-10 1788451540 iGate Rx-only Map
Symbol PI1WSN 1788451540 PI1WSN Map
Symbol E22ERY-8 1788451540 Map
Symbol OE3BUB-10 1788451540 Map
Symbol SQ5STR-N 1788451540 70cm MMDVM Voice (C4FM) 433.10000MHz +0.0000MHz, SQ5STR_Pi-Star_ND Map
Symbol 9A3DZL 1788451540 MMDVM Unknown 433.1215/433.1215 CC1 Map
Symbol DJ1PW-10 1788451539 iGate via Raspberry PI with RTL-SDR Dongle Map
Symbol EA3GKP-7 1788451539 MiniWX Station Barcelona (v1.1f) Map
Symbol OK2AF-5 1788451539 t67r000p000P000h...b10167 Map
Symbol YC1JEA-2 1788451539 ESP32 APRS Map
Symbol EA3AGQ-1 1788451539 b8440h.. Prv.Sere Map
Symbol HG8LSC 1788451539 MMDVM MMDVM HS 435.2000/435.2000 CC9 Map
Symbol DB0DUX B 1788451539 70cm Voice (D-Star) 438.48750MHz -7.6000MHz Map
Symbol N8ZED 1788451539 WX3in1Plus2.0 Keweenaw Bay,MI Digi iGate U=14.1V,T=/??.?F Map
Symbol HS2QEA C 1788451539 2m Voice (D-Star) 145.55000MHz +0.0000MHz Map
Symbol SO9TA-10 1788451539 Krakow - Ruczaj Fill-in Digi/iGate Map
Symbol K5KEY-10 1788451539 WX3in1Plus2.0 U=12.9V,T=??.?C/??.?F Map
Symbol HG6IQI 1788451539 MMDVM MMDVM HS Hat 434.5750/434.5750 CC8 Map
Symbol FIT TA BE 1788451539 FIT TA BE TIDE 19 MMSI:316039493 Map
Symbol N8YPA-9 1788451539 `Here we go_6 Map
Symbol AJ6WT-N 1788451539 70cm MMDVM Voice (C4FM) 431.40000MHz +0.0000MHz, AJ6WT_Pi-Star_ND Map
Symbol HS2QEA M 1788451539 2m Voice (D-Star) 146.27500MHz +0.0000MHz Map
Symbol KO4VLO B 1788451539 70cm Voice (D-Star) 433.17000MHz +0.0000MHz Map
Symbol W0LKS-N 1788451539 70cm MMDVM Voice (C4FM) 438.80000MHz +0.0000MHz, W0LKS_Pi-Star_ND Map
Symbol DN9AMB-Y 1788451539 70cm MMDVM Voice (C4FM) 433.67500MHz +0.0000MHz, APRS for YSFGateway Map
Symbol EDDC-met 1788451539 EDDC 031550Z AUTO 23006KT 200V280 9999 BKN043 BKN049 19/14 Q1017 RESHRA TEMPO 23015G25KT Map
Symbol SR9WXS 1788451539 Map
Symbol N1DUN-10 1788451539 2F: 76.8F 48%RH | Water:930ft3 Map
Symbol dl5mgz 1788451539 Map
Symbol AI7TX-2 1788451539 AI7TX-2 RF iGate+Digi Map
Symbol W9JAM-10 1788451539 144.390MHz IGate-WPSD Combo Unit | RPi | RTL-SDR Map
Symbol G0VSK Z 1788451539 70cm Voice (D-Star) 438.90000MHz +0.0000MHz Map
Symbol K1ZK-13 1788451539 AmbientCWOP.com Map
Symbol IK1ZVK-F 1788451539 70cm Voice (D-Star) 430.61250MHz +0.0000MHz Map
Symbol WA5VRL-D 1788451539 70cm MMDVM Voice (DMR) 441.00000MHz +0.0000MHz, APRS for DMRGateway Map
Symbol K5PEP-B 1788451539 440 Voice 446.22500MHz +0.0000MHz Map
Symbol KD2FKI 1788451539 .weewx-5.1.0-SDR Map